WKF weather

Waterkloof Air Force Base
Pretoria, Gauteng, South Africa

Public forecast

Using degrees Celsius for public forecast. Weather courtesy of forecast.io.

Current aviation weather report (METAR) for Waterkloof Air Force Base

Retrieved 2020/02/17 15:00 UTC (9 minutes ago):

FAWK 171500Z AUTO 34005KT //// // ////// 28/14 Q1020

Aviation forecast (TAF) for Waterkloof Air Force Base

Forecast is more than 12 hours old.

Retrieved 2019/01/10 07:00 UTC (1 year ago):

TAF FAWK 100800Z 1007/1018 33007KT 9999 SCT035 PROB30 TEMPO 1007/1009 -TSRA FEW035CB BECMG 1010/1012 CAVOK PROB30 TEMPO 1016/1018 VRB03KT SCT030 FEW035TCU TX30/1013Z TN25/1018Z